createdAt,value
2023-01-13T00:14:05.685Z,8.9
2023-01-13T00:29:05.701Z,9.1
2023-01-13T00:44:05.693Z,9.2
2023-01-13T00:59:05.737Z,9
2023-01-13T01:14:05.694Z,8.2
2023-01-13T01:29:05.692Z,8.1
2023-01-13T01:44:05.658Z,8
2023-01-13T01:59:05.697Z,7.8
2023-01-13T02:14:05.672Z,7.7
2023-01-13T02:29:05.702Z,7.6
2023-01-13T02:44:05.703Z,7.8
2023-01-13T02:59:05.690Z,7.6
2023-01-13T03:14:05.666Z,7.4
2023-01-13T03:29:05.745Z,7.2
2023-01-13T03:44:05.696Z,7.1
2023-01-13T03:59:05.740Z,7
2023-01-13T04:14:05.626Z,6.9
2023-01-13T04:29:05.729Z,7.2
2023-01-13T04:44:05.680Z,7.3
2023-01-13T04:59:05.703Z,7.1
2023-01-13T05:14:05.698Z,7.2
2023-01-13T05:29:05.700Z,7.1
2023-01-13T05:44:05.722Z,7.2
2023-01-13T05:59:05.701Z,7.4
2023-01-13T06:14:05.712Z,7.4
2023-01-13T06:29:05.717Z,7.2
2023-01-13T06:44:05.702Z,7
2023-01-13T06:59:05.738Z,6.8
2023-01-13T07:14:05.689Z,6.6
2023-01-13T07:29:05.728Z,6.6
2023-01-13T07:44:05.680Z,6.5
2023-01-13T07:59:05.695Z,6.6
2023-01-13T08:14:05.676Z,7
2023-01-13T08:29:05.694Z,7.2
2023-01-13T08:44:05.695Z,7.2
2023-01-13T08:59:05.700Z,7.4
2023-01-13T09:14:05.607Z,7.5
2023-01-13T09:29:05.720Z,7.8
2023-01-13T09:44:05.697Z,7.7
2023-01-13T09:59:05.708Z,7.8
2023-01-13T10:14:05.712Z,8.1
2023-01-13T10:29:05.752Z,8.2
2023-01-13T10:44:07.769Z,8.2
2023-01-13T10:59:05.733Z,8.2
2023-01-13T11:14:07.349Z,8.4
2023-01-13T11:29:05.739Z,8.4
2023-01-13T11:44:05.739Z,8.2
2023-01-13T11:59:05.706Z,7.9
2023-01-13T12:14:05.657Z,7.8
2023-01-13T12:29:05.722Z,6.8
2023-01-13T12:44:05.689Z,6
2023-01-13T12:59:05.729Z,6.1
2023-01-13T13:14:05.698Z,6.2
2023-01-13T13:29:05.721Z,6.3
2023-01-13T13:44:05.683Z,6.4
2023-01-13T13:59:05.720Z,6.4
2023-01-13T14:14:05.655Z,6.6
2023-01-13T14:29:05.702Z,6.7
2023-01-13T14:44:05.625Z,7.1
2023-01-13T14:59:05.649Z,6.9
2023-01-13T15:14:05.630Z,6.9
2023-01-13T15:29:05.633Z,6.6
2023-01-13T15:44:05.618Z,6.8
2023-01-13T15:59:05.618Z,7
2023-01-13T16:14:05.612Z,6.2
2023-01-13T16:29:05.671Z,6.6
2023-01-13T16:44:05.697Z,6.7
2023-01-13T16:59:05.692Z,6.9
2023-01-13T17:14:08.977Z,7.1
2023-01-13T17:29:05.721Z,7.2
2023-01-13T17:44:05.650Z,7.2
2023-01-13T17:59:05.723Z,7.3
2023-01-13T18:14:05.689Z,7.3
2023-01-13T18:29:05.696Z,7.2
2023-01-13T18:44:05.701Z,7.2
2023-01-13T18:59:05.726Z,7.2
2023-01-13T19:14:05.619Z,7.1
2023-01-13T19:29:05.731Z,6.9
2023-01-13T19:44:05.688Z,6.8
2023-01-13T19:59:05.725Z,6.8
2023-01-13T20:14:05.728Z,6.8
2023-01-13T20:29:05.694Z,6.9
2023-01-13T20:44:05.693Z,6.8
2023-01-13T20:59:05.729Z,6.8
2023-01-13T21:14:05.707Z,6.9
2023-01-13T21:29:05.717Z,6.8
2023-01-13T21:44:05.704Z,6.7
2023-01-13T21:59:05.740Z,6.6
2023-01-13T22:14:05.709Z,6.6
2023-01-13T22:29:05.720Z,6.5
2023-01-13T22:44:05.651Z,6.5
2023-01-13T22:59:05.708Z,6.4
2023-01-13T23:14:05.698Z,6.4
2023-01-13T23:29:05.706Z,6.5
2023-01-13T23:44:05.705Z,6.5
2023-01-13T23:59:05.760Z,6.4
